Beargrass, North Carolina
Current Conditions -  °F | °C
As of 10:15 PM on Saturday 20 Dec 2014 (Local Time) from KOCW Reporting Station
Overcast Overcast  
Wind Chill: 39°   Ceiling: 6000
Heat Index: 39°   Visibility: 10mi
Dew Point: 34°   Wind: 3mph
Humidity: 80%   Direction: 30°NNE
Pressure: 30.29"   Gusts: NA
Location:  35.7282°N, 77.0495°W
Report Text: KOCW 210315Z AUTO 03003KT 10SM OVC060 04/01 A3029 RMK AO2 T00400009
Loading
Personal Weather Stations






























Interactive Weather Map New forecast layout! Learn more

10-Day Weather Forecast

Advertisements
Track Severe Weather on mobile